createdAt,value
2023-07-05T00:00:28.271Z,0.00
2023-07-05T00:01:28.588Z,0.00
2023-07-05T00:02:28.892Z,0.00
2023-07-05T00:03:29.223Z,0.00
2023-07-05T00:04:29.481Z,0.00
2023-07-05T00:05:29.846Z,0.00
2023-07-05T00:06:30.125Z,0.00
2023-07-05T00:07:30.432Z,0.00
2023-07-05T00:08:30.717Z,0.00
2023-07-05T00:09:31.085Z,0.00
2023-07-05T00:10:31.398Z,0.00
2023-07-05T00:11:31.664Z,0.00
2023-07-05T00:12:32.010Z,0.00
2023-07-05T00:13:32.375Z,0.00
2023-07-05T00:14:32.682Z,0.00
2023-07-05T00:15:32.982Z,0.00
2023-07-05T00:16:33.374Z,0.00
2023-07-05T00:17:33.643Z,0.00
2023-07-05T00:18:33.933Z,0.00
2023-07-05T00:19:34.246Z,0.00
2023-07-05T00:20:34.535Z,0.00
2023-07-05T00:21:34.833Z,0.00
2023-07-05T00:22:35.147Z,0.00
2023-07-05T00:23:35.433Z,0.00
2023-07-05T00:24:35.792Z,0.00
2023-07-05T00:25:36.097Z,0.00
2023-07-05T00:26:36.396Z,0.00
2023-07-05T00:27:36.724Z,0.00
2023-07-05T00:28:37.066Z,0.00
2023-07-05T00:29:37.381Z,0.00
2023-07-05T00:30:37.682Z,0.00
2023-07-05T00:31:38.029Z,0.00
2023-07-05T00:32:38.355Z,0.00
2023-07-05T00:33:38.631Z,0.00
2023-07-05T00:34:38.943Z,0.00
2023-07-05T00:35:39.259Z,0.00
2023-07-05T00:36:39.558Z,0.00
2023-07-05T00:37:39.859Z,0.00
2023-07-05T00:38:40.184Z,0.00
2023-07-05T00:39:40.488Z,0.00
2023-07-05T00:40:40.782Z,0.00
2023-07-05T00:41:41.133Z,0.00
2023-07-05T00:42:41.484Z,0.00
2023-07-05T00:43:41.833Z,0.00
2023-07-05T00:44:42.086Z,0.00
2023-07-05T00:45:42.394Z,0.00
2023-07-05T00:46:42.639Z,0.00
2023-07-05T00:47:43.086Z,0.00
2023-07-05T00:48:43.238Z,0.00
2023-07-05T00:49:43.580Z,0.00
2023-07-05T00:50:43.865Z,0.00
2023-07-05T00:51:44.177Z,0.00
2023-07-05T00:52:44.490Z,0.00
2023-07-05T00:53:44.802Z,0.00
2023-07-05T00:54:45.116Z,0.00
2023-07-05T00:55:45.404Z,0.00
2023-07-05T00:56:45.759Z,0.00
2023-07-05T00:57:46.091Z,0.00
2023-07-05T00:58:46.393Z,0.00
2023-07-05T00:59:46.674Z,0.00
2023-07-05T01:00:47.009Z,0.00
2023-07-05T01:02:01.938Z,0.00
2023-07-05T01:02:48.697Z,0.00
2023-07-05T01:03:47.930Z,0.00
2023-07-05T01:04:48.263Z,0.00
2023-07-05T01:05:48.661Z,0.00
2023-07-05T01:06:48.861Z,0.00
2023-07-05T01:07:49.163Z,0.00
2023-07-05T01:08:49.450Z,0.00
2023-07-05T01:09:49.776Z,0.00
2023-07-05T01:10:50.124Z,0.00
2023-07-05T01:14:23.079Z,0.00
2023-07-05T01:15:23.349Z,0.00
2023-07-05T01:16:23.705Z,0.00
2023-07-05T01:17:24.096Z,0.00
2023-07-05T01:18:24.293Z,0.00
2023-07-05T01:19:24.590Z,0.00
2023-07-05T01:20:24.911Z,0.00
2023-07-05T01:21:25.245Z,0.00
2023-07-05T01:22:25.532Z,0.00
2023-07-05T01:23:25.843Z,0.00
2023-07-05T01:24:26.139Z,0.00
2023-07-05T01:25:26.499Z,0.00
2023-07-05T01:26:26.787Z,0.00
2023-07-05T01:27:27.085Z,0.00
2023-07-05T01:28:27.434Z,0.00
2023-07-05T01:29:27.703Z,0.00
2023-07-05T01:30:28.053Z,0.00
2023-07-05T01:31:28.479Z,0.00
2023-07-05T01:32:28.700Z,0.00
2023-07-05T01:33:29.024Z,0.00
2023-07-05T01:34:29.316Z,0.00
2023-07-05T01:35:29.659Z,0.00
2023-07-05T01:36:29.941Z,0.00
2023-07-05T01:37:30.294Z,0.00
2023-07-05T01:38:30.587Z,0.00
2023-07-05T01:39:30.934Z,0.00
2023-07-05T01:40:31.229Z,0.00
2023-07-05T01:41:31.562Z,0.00
2023-07-05T01:42:31.849Z,0.00
2023-07-05T01:43:32.199Z,0.00
2023-07-05T01:44:32.495Z,0.00
2023-07-05T01:45:32.815Z,0.00
2023-07-05T01:46:33.124Z,0.00
2023-07-05T01:47:33.461Z,0.00
2023-07-05T01:48:33.776Z,0.00
2023-07-05T01:49:34.075Z,0.00
2023-07-05T01:50:34.385Z,0.00
2023-07-05T01:51:34.660Z,0.00
2023-07-05T01:52:34.982Z,0.00
2023-07-05T01:53:35.294Z,0.00
2023-07-05T01:54:35.597Z,0.00
2023-07-05T01:55:35.918Z,0.00
2023-07-05T01:56:36.212Z,0.00
2023-07-05T01:57:36.548Z,0.00
2023-07-05T01:58:45.779Z,0.00
2023-07-05T01:59:37.150Z,0.00
2023-07-05T02:00:37.494Z,0.00
2023-07-05T02:01:37.781Z,0.00
2023-07-05T02:02:38.209Z,0.00
2023-07-05T02:03:38.426Z,0.00
2023-07-05T02:04:38.788Z,0.00
2023-07-05T02:05:39.053Z,0.00
2023-07-05T02:06:39.378Z,0.00
2023-07-05T02:07:39.667Z,0.00
2023-07-05T02:08:40.070Z,0.00
2023-07-05T02:09:40.331Z,0.00
2023-07-05T02:10:40.651Z,0.00
2023-07-05T02:11:40.954Z,0.00
2023-07-05T02:12:41.277Z,0.00
2023-07-05T02:13:41.611Z,0.00
2023-07-05T02:14:41.903Z,0.00
2023-07-05T02:15:42.186Z,0.00
2023-07-05T02:16:42.510Z,0.00
2023-07-05T02:17:42.944Z,0.00
2023-07-05T02:18:43.161Z,0.00
2023-07-05T02:19:43.547Z,0.00
2023-07-05T02:20:43.722Z,0.00
2023-07-05T02:21:44.068Z,0.00
2023-07-05T02:22:44.401Z,0.00
2023-07-05T02:23:44.700Z,0.00
2023-07-05T02:24:45.021Z,0.00
2023-07-05T02:25:45.392Z,0.00
2023-07-05T02:26:45.703Z,0.00
2023-07-05T02:27:46.020Z,0.00
2023-07-05T02:28:46.332Z,0.00
2023-07-05T02:29:46.680Z,0.00
2023-07-05T02:30:47.048Z,0.00
2023-07-05T02:31:47.244Z,0.00
2023-07-05T02:32:47.641Z,0.00
2023-07-05T02:33:47.833Z,0.00
2023-07-05T02:34:48.161Z,0.00
2023-07-05T02:35:48.506Z,0.00
2023-07-05T02:36:48.866Z,0.00
2023-07-05T02:37:49.164Z,0.00
2023-07-05T02:38:49.521Z,0.00
2023-07-05T02:39:49.741Z,5.62
2023-07-05T02:40:50.122Z,5.62
2023-07-05T02:41:50.329Z,5.62
2023-07-05T02:42:50.627Z,5.62
2023-07-05T02:43:50.949Z,5.62
2023-07-05T02:44:51.279Z,5.62
2023-07-05T02:45:51.774Z,5.62
2023-07-05T02:46:52.126Z,5.62
2023-07-05T02:47:52.276Z,5.62
2023-07-05T02:48:52.446Z,5.62
2023-07-05T02:49:52.814Z,11.25
2023-07-05T02:50:53.061Z,11.25
2023-07-05T02:51:53.252Z,11.25
2023-07-05T02:52:53.583Z,11.25
2023-07-05T02:53:53.915Z,11.25
2023-07-05T02:54:54.306Z,11.25
2023-07-05T02:55:54.792Z,16.88
2023-07-05T02:56:54.885Z,16.88
2023-07-05T02:57:55.116Z,16.88
2023-07-05T02:58:55.300Z,16.88
2023-07-05T02:59:55.697Z,16.88
2023-07-05T03:00:56.880Z,22.50
2023-07-05T03:01:56.171Z,22.50
2023-07-05T03:02:56.488Z,22.50
2023-07-05T03:03:56.869Z,22.50
2023-07-05T03:04:57.167Z,22.50
2023-07-05T03:05:57.441Z,22.50
2023-07-05T03:06:57.623Z,22.50
2023-07-05T03:07:57.861Z,22.50
2023-07-05T03:08:58.093Z,28.12
2023-07-05T03:09:58.319Z,28.12
2023-07-05T03:10:58.641Z,28.12
2023-07-05T03:11:58.874Z,28.12
2023-07-05T03:12:59.204Z,33.75
2023-07-05T03:13:59.567Z,33.75
2023-07-05T03:14:59.786Z,33.75
2023-07-05T03:16:00.168Z,39.38
2023-07-05T03:17:00.493Z,39.38
2023-07-05T03:18:00.774Z,39.38
2023-07-05T03:19:01.045Z,39.38
2023-07-05T03:20:01.260Z,45.00
2023-07-05T03:21:01.477Z,45.00
2023-07-05T03:22:01.747Z,45.00
2023-07-05T03:23:02.023Z,45.00
2023-07-05T03:24:02.239Z,45.00
2023-07-05T03:25:02.474Z,50.62
2023-07-05T03:26:02.750Z,50.62
2023-07-05T03:27:02.976Z,50.62
2023-07-05T03:28:03.248Z,50.62
2023-07-05T03:29:03.466Z,56.25
2023-07-05T03:30:03.687Z,56.25
2023-07-05T03:31:03.941Z,50.62
2023-07-05T03:32:04.277Z,56.25
2023-07-05T03:33:04.517Z,56.25
2023-07-05T03:34:04.804Z,56.25
2023-07-05T03:35:05.024Z,61.88
2023-07-05T03:36:05.241Z,61.88
2023-07-05T03:37:05.564Z,61.88
2023-07-05T03:38:05.782Z,67.50
2023-07-05T03:39:06.000Z,67.50
2023-07-05T03:40:06.339Z,73.12
2023-07-05T03:41:06.560Z,73.12
2023-07-05T03:42:06.868Z,78.75
2023-07-05T03:43:07.082Z,84.38
2023-07-05T03:44:07.441Z,90.00
2023-07-05T03:45:07.652Z,90.00
2023-07-05T03:46:07.982Z,95.62
2023-07-05T03:47:08.212Z,95.62
2023-07-05T03:48:08.437Z,95.62
2023-07-05T03:49:08.634Z,95.62
2023-07-05T03:50:08.887Z,95.62
2023-07-05T03:51:09.258Z,95.62
2023-07-05T03:52:09.498Z,95.62
2023-07-05T03:53:09.722Z,95.62
2023-07-05T03:54:10.106Z,101.25
2023-07-05T03:55:10.307Z,106.88
2023-07-05T03:56:10.705Z,112.50
2023-07-05T03:57:10.895Z,118.12
2023-07-05T03:58:11.153Z,112.50
2023-07-05T03:59:11.368Z,118.12
2023-07-05T04:00:11.646Z,118.12
2023-07-05T04:01:11.921Z,118.12
2023-07-05T04:02:12.154Z,118.12
2023-07-05T04:03:12.428Z,118.12
2023-07-05T04:04:12.650Z,118.12
2023-07-05T04:05:12.929Z,118.12
2023-07-05T04:06:13.170Z,118.12
2023-07-05T04:07:13.367Z,118.12
2023-07-05T04:08:13.662Z,123.75
2023-07-05T04:09:13.916Z,123.75
2023-07-05T04:10:14.136Z,123.75
2023-07-05T04:11:14.359Z,129.38
2023-07-05T04:12:14.609Z,135.00
2023-07-05T04:13:14.960Z,135.00
2023-07-05T04:14:15.221Z,135.00
2023-07-05T04:15:15.448Z,140.62
2023-07-05T04:16:15.745Z,140.62
2023-07-05T04:17:15.941Z,140.62
2023-07-05T04:18:16.169Z,140.62
2023-07-05T04:19:16.650Z,140.62
2023-07-05T04:20:16.737Z,140.62
2023-07-05T04:21:16.978Z,140.62
2023-07-05T04:22:17.202Z,140.62
2023-07-05T04:23:17.474Z,140.62
2023-07-05T04:24:17.675Z,140.62
2023-07-05T04:25:17.901Z,140.62
2023-07-05T04:26:18.124Z,140.62
2023-07-05T04:27:18.394Z,140.62
2023-07-05T04:28:18.650Z,140.62
2023-07-05T04:29:18.908Z,140.62
2023-07-05T04:30:19.171Z,140.62
2023-07-05T04:31:19.472Z,140.62
2023-07-05T04:32:19.743Z,146.25
2023-07-05T04:33:19.973Z,151.88
2023-07-05T04:34:20.187Z,151.88
2023-07-05T04:35:20.536Z,151.88
2023-07-05T04:36:26.761Z,157.50
2023-07-05T04:37:29.225Z,157.50
2023-07-05T04:38:22.361Z,157.50
2023-07-05T04:39:21.615Z,157.50
2023-07-05T04:40:21.884Z,157.50
2023-07-05T04:41:22.289Z,163.12
2023-07-05T04:42:22.573Z,163.12
2023-07-05T04:43:22.811Z,168.75
2023-07-05T04:44:23.178Z,163.12
2023-07-05T04:45:23.402Z,163.12
2023-07-05T04:46:23.883Z,163.12
2023-07-05T04:47:24.141Z,168.75
2023-07-05T04:48:24.368Z,174.38
2023-07-05T04:49:24.574Z,174.38
2023-07-05T04:50:24.920Z,180.00
2023-07-05T04:51:25.159Z,180.00
2023-07-05T04:52:25.522Z,191.25
2023-07-05T04:53:25.780Z,196.88
2023-07-05T04:54:26.003Z,202.50
2023-07-05T04:55:26.233Z,213.75
2023-07-05T04:56:26.499Z,225.00
2023-07-05T04:57:32.018Z,241.88
2023-07-05T04:58:28.075Z,253.12
2023-07-05T04:59:27.348Z,258.75
2023-07-05T05:00:27.612Z,241.88
2023-07-05T05:01:27.917Z,275.62
2023-07-05T05:02:28.384Z,275.62
2023-07-05T05:03:28.442Z,281.25
2023-07-05T05:04:28.806Z,270.00
2023-07-05T05:05:29.004Z,298.12
2023-07-05T05:06:29.242Z,320.62
2023-07-05T05:07:29.464Z,348.75
2023-07-05T05:08:29.890Z,365.62
2023-07-05T05:09:30.067Z,382.50
2023-07-05T05:10:30.342Z,388.12
2023-07-05T05:11:30.603Z,376.88
2023-07-05T05:12:30.873Z,410.62
2023-07-05T05:13:31.270Z,433.12
2023-07-05T05:14:31.352Z,489.38
2023-07-05T05:15:31.612Z,455.62
2023-07-05T05:16:31.921Z,410.62
2023-07-05T05:17:32.167Z,455.62
2023-07-05T05:18:32.396Z,495.00
2023-07-05T05:19:32.738Z,489.38
2023-07-05T05:20:32.901Z,478.12
2023-07-05T05:21:33.154Z,461.25
2023-07-05T05:22:33.417Z,545.62
2023-07-05T05:23:33.670Z,540.00
2023-07-05T05:24:33.925Z,455.62
2023-07-05T05:25:34.153Z,416.25
2023-07-05T05:26:34.404Z,382.50
2023-07-05T05:27:34.679Z,399.38
2023-07-05T05:28:34.956Z,421.88
2023-07-05T05:29:35.189Z,421.88
2023-07-05T05:30:35.495Z,517.50
2023-07-05T05:31:35.733Z,523.12
2023-07-05T05:32:35.954Z,466.88
2023-07-05T05:33:36.230Z,438.75
2023-07-05T05:34:36.488Z,388.12
2023-07-05T05:35:36.714Z,433.12
2023-07-05T05:36:36.947Z,500.62
2023-07-05T05:37:37.249Z,495.00
2023-07-05T05:38:37.512Z,562.50
2023-07-05T05:39:37.783Z,579.38
2023-07-05T05:40:38.032Z,736.88
2023-07-05T05:41:38.267Z,793.12
2023-07-05T05:42:38.516Z,646.88
2023-07-05T05:43:38.825Z,697.50
2023-07-05T05:44:39.040Z,821.25
2023-07-05T05:45:39.330Z,781.88
2023-07-05T05:46:39.595Z,759.38
2023-07-05T05:47:39.912Z,742.50
2023-07-05T05:48:40.157Z,675.00
2023-07-05T05:49:40.409Z,585.00
2023-07-05T05:50:40.662Z,506.25
2023-07-05T05:51:40.926Z,433.12
2023-07-05T05:52:41.168Z,388.12
2023-07-05T05:53:41.423Z,360.00
2023-07-05T05:54:41.674Z,343.12
2023-07-05T05:55:41.965Z,343.12
2023-07-05T05:56:42.171Z,337.50
2023-07-05T05:57:42.570Z,326.25
2023-07-05T05:58:42.781Z,320.62
2023-07-05T05:59:43.144Z,315.00
2023-07-05T06:00:43.374Z,309.38
2023-07-05T06:01:44.786Z,298.12
2023-07-05T06:02:43.899Z,286.88
2023-07-05T06:03:44.320Z,298.12
2023-07-05T06:04:44.399Z,303.75
2023-07-05T06:05:44.644Z,315.00
2023-07-05T06:06:44.881Z,326.25
2023-07-05T06:07:45.122Z,348.75
2023-07-05T06:08:45.403Z,360.00
2023-07-05T06:09:45.614Z,343.12
2023-07-05T06:10:45.825Z,343.12
2023-07-05T06:11:46.160Z,360.00
2023-07-05T06:12:46.415Z,360.00
2023-07-05T06:13:46.758Z,371.25
2023-07-05T06:14:47.032Z,399.38
2023-07-05T06:15:53.511Z,450.00
2023-07-05T06:16:48.617Z,450.00
2023-07-05T06:17:47.956Z,483.75
2023-07-05T06:18:48.177Z,483.75
2023-07-05T06:19:48.434Z,433.12
2023-07-05T06:20:48.666Z,478.12
2023-07-05T06:21:48.939Z,472.50
2023-07-05T06:22:49.201Z,438.75
2023-07-05T06:23:49.431Z,438.75
2023-07-05T06:24:49.675Z,455.62
2023-07-05T06:25:51.426Z,483.75
2023-07-05T06:26:50.189Z,534.38
2023-07-05T06:27:50.450Z,556.88
2023-07-05T06:28:50.693Z,556.88
2023-07-05T06:29:50.948Z,562.50
2023-07-05T06:30:51.351Z,466.88
2023-07-05T06:31:52.384Z,405.00
2023-07-05T06:32:51.716Z,421.88
2023-07-05T06:33:52.013Z,461.25
2023-07-05T06:34:52.257Z,511.88
2023-07-05T06:35:52.616Z,601.88
2023-07-05T06:36:52.790Z,500.62
2023-07-05T06:37:53.085Z,528.75
2023-07-05T06:38:53.345Z,478.12
2023-07-05T06:39:53.606Z,466.88
2023-07-05T06:40:54.191Z,438.75
2023-07-05T06:41:54.100Z,455.62
2023-07-05T06:42:54.362Z,495.00
2023-07-05T06:43:54.620Z,528.75
2023-07-05T06:44:54.916Z,472.50
2023-07-05T06:45:55.254Z,455.62
2023-07-05T06:46:55.535Z,495.00
2023-07-05T06:47:55.793Z,483.75
2023-07-05T06:48:56.069Z,596.25
2023-07-05T06:49:56.330Z,579.38
2023-07-05T06:50:56.944Z,579.38
2023-07-05T06:51:56.878Z,562.50
2023-07-05T06:53:16.625Z,573.75
2023-07-05T06:53:58.359Z,590.62
2023-07-05T06:54:57.722Z,556.88
2023-07-05T06:55:57.945Z,613.12
2023-07-05T06:56:58.159Z,624.38
2023-07-05T06:57:58.458Z,528.75
2023-07-05T06:58:58.728Z,562.50
2023-07-05T06:59:58.943Z,511.88
2023-07-05T07:00:59.173Z,556.88
2023-07-05T07:01:59.491Z,646.88
2023-07-05T07:02:59.741Z,675.00
2023-07-05T07:03:59.990Z,545.62
2023-07-05T07:05:00.263Z,489.38
2023-07-05T07:06:00.534Z,511.88
2023-07-05T07:07:00.787Z,528.75
2023-07-05T07:08:01.052Z,601.88
2023-07-05T07:09:01.286Z,500.62
2023-07-05T07:10:01.558Z,438.75
2023-07-05T07:11:01.828Z,371.25
2023-07-05T07:12:02.066Z,292.50
2023-07-05T07:13:02.291Z,230.62
2023-07-05T07:14:02.620Z,191.25
2023-07-05T07:15:02.867Z,163.12
2023-07-05T07:16:03.182Z,157.50
2023-07-05T07:17:03.387Z,180.00
2023-07-05T07:18:03.728Z,185.62
2023-07-05T07:19:03.969Z,180.00
2023-07-05T07:20:04.208Z,180.00
2023-07-05T07:21:04.445Z,180.00
2023-07-05T07:22:04.702Z,180.00
2023-07-05T07:23:04.930Z,174.38
2023-07-05T07:24:05.249Z,174.38
2023-07-05T07:25:05.432Z,180.00
2023-07-05T07:26:05.746Z,168.75
2023-07-05T07:27:05.972Z,163.12
2023-07-05T07:28:06.229Z,174.38
2023-07-05T07:29:06.468Z,185.62
2023-07-05T07:30:06.708Z,180.00
2023-07-05T07:31:06.948Z,168.75
2023-07-05T07:32:07.420Z,151.88
2023-07-05T07:33:07.611Z,146.25
2023-07-05T07:34:07.812Z,140.62
2023-07-05T07:35:08.033Z,151.88
2023-07-05T07:36:08.261Z,157.50
2023-07-05T07:37:08.499Z,163.12
2023-07-05T07:38:08.752Z,151.88
2023-07-05T07:39:09.136Z,129.38
2023-07-05T07:40:09.203Z,112.50
2023-07-05T07:41:09.553Z,106.88
2023-07-05T07:42:09.775Z,101.25
2023-07-05T07:43:10.001Z,95.62
2023-07-05T07:44:10.372Z,95.62
2023-07-05T07:45:10.603Z,101.25
2023-07-05T07:46:10.882Z,118.12
2023-07-05T07:47:11.145Z,135.00
2023-07-05T07:48:11.350Z,163.12
2023-07-05T07:49:11.706Z,191.25
2023-07-05T07:50:11.959Z,225.00
2023-07-05T07:51:23.043Z,298.12
2023-07-05T07:52:13.505Z,360.00
2023-07-05T07:53:13.678Z,371.25
2023-07-05T07:54:13.060Z,388.12
2023-07-05T07:55:13.312Z,393.75
2023-07-05T07:56:13.669Z,405.00
2023-07-05T07:57:13.878Z,399.38
2023-07-05T07:58:14.143Z,354.38
2023-07-05T07:59:14.504Z,320.62
2023-07-05T08:00:14.633Z,298.12
2023-07-05T08:01:14.842Z,292.50
2023-07-05T08:02:15.096Z,286.88
2023-07-05T08:03:15.415Z,286.88
2023-07-05T08:04:15.748Z,275.62
2023-07-05T08:05:16.098Z,281.25
2023-07-05T08:06:16.167Z,241.88
2023-07-05T08:07:16.456Z,225.00
2023-07-05T08:08:18.371Z,219.38
2023-07-05T08:09:16.936Z,230.62
2023-07-05T08:10:17.192Z,225.00
2023-07-05T08:11:17.413Z,236.25
2023-07-05T08:12:17.765Z,286.88
2023-07-05T08:13:18.017Z,343.12
2023-07-05T08:14:18.334Z,438.75
2023-07-05T08:15:18.546Z,450.00
2023-07-05T08:16:18.828Z,427.50
2023-07-05T08:17:19.109Z,388.12
2023-07-05T08:18:19.351Z,354.38
2023-07-05T08:19:19.586Z,376.88
2023-07-05T08:20:19.850Z,410.62
2023-07-05T08:21:20.110Z,421.88
2023-07-05T08:22:20.346Z,438.75
2023-07-05T08:23:20.635Z,455.62
2023-07-05T08:24:26.010Z,461.25
2023-07-05T08:25:22.245Z,455.62
2023-07-05T08:26:21.574Z,433.12
2023-07-05T08:27:21.858Z,421.88
2023-07-05T08:28:22.108Z,421.88
2023-07-05T08:29:22.367Z,427.50
2023-07-05T08:30:22.578Z,427.50
2023-07-05T08:31:22.871Z,421.88
2023-07-05T08:32:23.164Z,393.75
2023-07-05T08:33:23.416Z,376.88
2023-07-05T08:34:23.661Z,376.88
2023-07-05T08:35:23.899Z,376.88
2023-07-05T08:36:24.177Z,393.75
2023-07-05T08:37:24.425Z,399.38
2023-07-05T08:38:24.649Z,405.00
2023-07-05T08:39:24.877Z,393.75
2023-07-05T08:40:25.168Z,382.50
2023-07-05T08:41:25.450Z,376.88
2023-07-05T08:42:25.712Z,360.00
2023-07-05T08:43:25.915Z,331.88
2023-07-05T08:44:26.196Z,315.00
2023-07-05T08:45:26.463Z,320.62
2023-07-05T08:46:26.689Z,337.50
2023-07-05T08:47:26.933Z,326.25
2023-07-05T08:48:27.212Z,354.38
2023-07-05T08:49:27.399Z,393.75
2023-07-05T08:50:32.086Z,405.00
2023-07-05T08:51:29.002Z,388.12
2023-07-05T08:52:28.292Z,376.88
2023-07-05T08:53:28.523Z,376.88
2023-07-05T08:54:28.819Z,354.38
2023-07-05T08:55:29.046Z,348.75
2023-07-05T08:56:29.280Z,337.50
2023-07-05T08:57:29.497Z,320.62
2023-07-05T08:58:29.790Z,292.50
2023-07-05T08:59:30.007Z,286.88
2023-07-05T09:00:30.324Z,281.25
2023-07-05T09:01:30.640Z,303.75
2023-07-05T09:02:30.974Z,286.88
2023-07-05T09:03:31.496Z,253.12
2023-07-05T09:04:31.559Z,213.75
2023-07-05T09:05:31.856Z,230.62
2023-07-05T09:06:32.111Z,303.75
2023-07-05T09:07:32.338Z,326.25
2023-07-05T09:08:32.724Z,326.25
2023-07-05T09:09:32.941Z,298.12
2023-07-05T09:10:33.288Z,270.00
2023-07-05T09:11:33.490Z,219.38
2023-07-05T09:12:33.759Z,180.00
2023-07-05T09:13:34.042Z,151.88
2023-07-05T09:14:34.314Z,123.75
2023-07-05T09:15:34.552Z,123.75
2023-07-05T09:16:34.853Z,135.00
2023-07-05T09:17:35.119Z,129.38
2023-07-05T09:18:35.343Z,135.00
2023-07-05T09:19:35.715Z,174.38
2023-07-05T09:20:35.947Z,236.25
2023-07-05T09:21:36.254Z,315.00
2023-07-05T09:22:36.515Z,354.38
2023-07-05T09:23:36.831Z,281.25
2023-07-05T09:24:36.970Z,230.62
2023-07-05T09:25:44.790Z,241.88
2023-07-05T09:26:38.503Z,286.88
2023-07-05T09:27:37.775Z,348.75
2023-07-05T09:28:38.048Z,360.00
2023-07-05T09:29:38.306Z,388.12
2023-07-05T09:30:38.587Z,405.00
2023-07-05T09:31:38.824Z,405.00
2023-07-05T09:32:39.192Z,382.50
2023-07-05T09:33:39.445Z,331.88
2023-07-05T09:34:39.665Z,281.25
2023-07-05T09:35:39.918Z,275.62
2023-07-05T09:36:40.271Z,337.50
2023-07-05T09:37:40.535Z,309.38
2023-07-05T09:38:40.801Z,219.38
2023-07-05T09:39:41.035Z,151.88
2023-07-05T09:40:41.389Z,118.12
2023-07-05T09:41:41.598Z,118.12
2023-07-05T09:42:41.974Z,123.75
2023-07-05T09:43:42.277Z,168.75
2023-07-05T09:44:42.447Z,219.38
2023-07-05T09:45:42.805Z,202.50
2023-07-05T09:46:43.174Z,163.12
2023-07-05T09:47:43.418Z,151.88
2023-07-05T09:48:43.703Z,168.75
2023-07-05T09:49:43.938Z,202.50
2023-07-05T09:50:44.152Z,213.75
2023-07-05T09:51:44.390Z,202.50
2023-07-05T09:52:44.690Z,225.00
2023-07-05T09:53:44.932Z,241.88
2023-07-05T09:54:45.132Z,219.38
2023-07-05T09:55:45.480Z,202.50
2023-07-05T09:56:45.709Z,230.62
2023-07-05T09:57:45.955Z,275.62
2023-07-05T09:58:46.211Z,309.38
2023-07-05T09:59:46.419Z,326.25
2023-07-05T10:00:46.794Z,337.50
2023-07-05T10:01:47.053Z,343.12
2023-07-05T10:02:47.298Z,371.25
2023-07-05T10:03:47.603Z,410.62
2023-07-05T10:04:47.790Z,421.88
2023-07-05T10:05:47.985Z,405.00
2023-07-05T10:06:48.237Z,399.38
2023-07-05T10:07:48.485Z,399.38
2023-07-05T10:08:48.738Z,399.38
2023-07-05T10:09:49.009Z,388.12
2023-07-05T10:10:49.258Z,388.12
2023-07-05T10:11:49.519Z,388.12
2023-07-05T10:12:49.776Z,393.75
2023-07-05T10:13:50.055Z,399.38
2023-07-05T10:14:50.276Z,410.62
2023-07-05T10:15:50.534Z,416.25
2023-07-05T10:16:52.472Z,421.88
2023-07-05T10:17:51.049Z,416.25
2023-07-05T10:18:51.290Z,382.50
2023-07-05T10:19:51.550Z,337.50
2023-07-05T10:20:51.774Z,320.62
2023-07-05T10:21:52.043Z,309.38
2023-07-05T10:22:52.283Z,264.38
2023-07-05T10:23:52.525Z,236.25
2023-07-05T10:24:52.753Z,281.25
2023-07-05T10:25:53.416Z,326.25
2023-07-05T10:26:53.378Z,348.75
2023-07-05T10:27:53.739Z,365.62
2023-07-05T10:28:53.954Z,382.50
2023-07-05T10:29:54.225Z,405.00
2023-07-05T10:30:54.467Z,410.62
2023-07-05T10:31:54.726Z,416.25
2023-07-05T10:32:55.011Z,410.62
2023-07-05T10:33:55.237Z,410.62
2023-07-05T10:34:55.501Z,399.38
2023-07-05T10:35:56.044Z,382.50
2023-07-05T10:36:56.047Z,376.88
2023-07-05T10:37:56.282Z,376.88
2023-07-05T10:38:56.515Z,365.62
2023-07-05T10:39:56.882Z,320.62
2023-07-05T10:40:57.110Z,281.25
2023-07-05T10:41:59.653Z,270.00
2023-07-05T10:42:57.767Z,315.00
2023-07-05T10:43:58.033Z,315.00
2023-07-05T10:44:58.262Z,303.75
2023-07-05T10:45:58.474Z,292.50
2023-07-05T10:46:58.687Z,315.00
2023-07-05T10:47:58.990Z,320.62
2023-07-05T10:48:59.178Z,292.50
2023-07-05T10:49:59.402Z,281.25
2023-07-05T10:50:59.756Z,270.00
2023-07-05T10:52:00.000Z,286.88
2023-07-05T10:53:00.205Z,315.00
2023-07-05T10:54:00.578Z,331.88
2023-07-05T10:55:00.785Z,365.62
2023-07-05T10:56:01.012Z,376.88
2023-07-05T10:57:01.282Z,382.50
2023-07-05T10:58:01.639Z,399.38
2023-07-05T10:59:01.920Z,382.50
2023-07-05T11:00:02.165Z,343.12
2023-07-05T11:01:02.450Z,354.38
2023-07-05T11:02:02.783Z,382.50
2023-07-05T11:03:02.935Z,410.62
2023-07-05T11:04:03.182Z,421.88
2023-07-05T11:05:03.532Z,433.12
2023-07-05T11:06:03.753Z,438.75
2023-07-05T11:07:04.014Z,433.12
2023-07-05T11:08:04.277Z,427.50
2023-07-05T11:09:06.119Z,427.50
2023-07-05T11:10:04.806Z,410.62
2023-07-05T11:11:06.030Z,405.00
2023-07-05T11:12:05.349Z,416.25
2023-07-05T11:13:05.523Z,388.12
2023-07-05T11:14:05.849Z,382.50
2023-07-05T11:15:06.069Z,393.75
2023-07-05T11:16:06.342Z,399.38
2023-07-05T11:17:06.564Z,393.75
2023-07-05T11:18:06.877Z,388.12
2023-07-05T11:19:07.103Z,371.25
2023-07-05T11:20:07.346Z,360.00
2023-07-05T11:21:07.565Z,343.12
2023-07-05T11:22:07.816Z,348.75
2023-07-05T11:23:08.097Z,331.88
2023-07-05T11:24:08.370Z,309.38
2023-07-05T11:25:08.616Z,281.25
2023-07-05T11:26:08.866Z,264.38
2023-07-05T11:27:09.107Z,275.62
2023-07-05T11:28:09.894Z,281.25
2023-07-05T11:29:09.648Z,298.12
2023-07-05T11:30:09.851Z,315.00
2023-07-05T11:31:10.297Z,320.62
2023-07-05T11:32:10.526Z,309.38
2023-07-05T11:33:10.930Z,292.50
2023-07-05T11:34:11.033Z,275.62
2023-07-05T11:35:11.259Z,247.50
2023-07-05T11:36:11.626Z,230.62
2023-07-05T11:37:11.841Z,208.12
2023-07-05T11:38:12.206Z,213.75
2023-07-05T11:39:12.420Z,247.50
2023-07-05T11:40:12.689Z,281.25
2023-07-05T11:41:12.948Z,281.25
2023-07-05T11:42:13.184Z,258.75
2023-07-05T11:43:13.391Z,241.88
2023-07-05T11:44:13.659Z,219.38
2023-07-05T11:45:13.896Z,236.25
2023-07-05T11:46:14.259Z,264.38
2023-07-05T11:47:14.415Z,303.75
2023-07-05T11:48:14.686Z,331.88
2023-07-05T11:49:15.045Z,343.12
2023-07-05T11:50:15.652Z,360.00
2023-07-05T11:51:36.097Z,360.00
2023-07-05T11:52:16.934Z,365.62
2023-07-05T11:53:16.207Z,360.00
2023-07-05T11:54:16.550Z,337.50
2023-07-05T11:55:16.918Z,354.38
2023-07-05T11:56:17.180Z,365.62
2023-07-05T11:57:17.413Z,388.12
2023-07-05T11:58:17.670Z,376.88
2023-07-05T11:59:17.931Z,388.12
2023-07-05T12:00:18.193Z,376.88
2023-07-05T12:01:18.476Z,365.62
2023-07-05T12:02:18.683Z,399.38
2023-07-05T12:03:19.061Z,444.38
2023-07-05T12:04:19.325Z,416.25
2023-07-05T12:05:19.530Z,393.75
2023-07-05T12:06:19.761Z,393.75
2023-07-05T12:07:19.999Z,354.38
2023-07-05T12:08:20.265Z,348.75
2023-07-05T12:09:20.483Z,354.38
2023-07-05T12:10:20.708Z,376.88
2023-07-05T12:11:21.078Z,399.38
2023-07-05T12:12:22.300Z,348.75
2023-07-05T12:13:21.616Z,365.62
2023-07-05T12:14:21.859Z,281.25
2023-07-05T12:15:22.070Z,236.25
2023-07-05T12:16:22.345Z,236.25
2023-07-05T12:17:22.699Z,275.62
2023-07-05T12:18:22.938Z,348.75
2023-07-05T12:19:23.157Z,348.75
2023-07-05T12:20:23.387Z,331.88
2023-07-05T12:21:24.999Z,331.88
2023-07-05T12:22:23.923Z,337.50
2023-07-05T12:23:24.176Z,331.88
2023-07-05T12:24:24.392Z,315.00
2023-07-05T12:25:24.614Z,292.50
2023-07-05T12:26:24.913Z,303.75
2023-07-05T12:27:25.157Z,320.62
2023-07-05T12:28:25.398Z,331.88
2023-07-05T12:29:25.618Z,315.00
2023-07-05T12:30:25.967Z,286.88
2023-07-05T12:31:26.204Z,286.88
2023-07-05T12:32:26.526Z,286.88
2023-07-05T12:33:26.709Z,286.88
2023-07-05T12:34:26.967Z,292.50
2023-07-05T12:35:27.201Z,303.75
2023-07-05T12:36:27.472Z,315.00
2023-07-05T12:37:27.716Z,326.25
2023-07-05T12:38:27.920Z,343.12
2023-07-05T12:39:28.295Z,348.75
2023-07-05T12:40:28.565Z,348.75
2023-07-05T12:41:28.763Z,343.12
2023-07-05T12:42:28.992Z,343.12
2023-07-05T12:43:29.254Z,348.75
2023-07-05T12:44:29.429Z,360.00
2023-07-05T12:45:29.890Z,360.00
2023-07-05T12:46:30.135Z,371.25